Milan, Italy
Current Conditions -  °F | °C
As of 1:20 PM on Thursday 30 Oct 2014 (Local Time) from LIML Reporting Station
Haze Haze  
Wind Chill: 59°   Ceiling: Unl
Heat Index: 59°   Visibility: 3mi
Dew Point: 45°   Wind: 7mph
Humidity: 59%   Direction: 220°SW
Pressure: 30.24"   Gusts: NA
Location:  45.46°N, 9.19°E
Report Text: LIML 301220Z 22006KT 180V270 5000 BR NSC 15/07 Q1024 NOSIG
Loading
Personal Weather Stations






























Interactive Weather Map
Tropical Storm Tracking
New forecast layout! Learn more

10-Day Weather Forecast

Advertisements
Track Severe Weather on mobile